createdAt,value
2019-04-03T00:00:47.009Z,57.87
2019-04-03T00:01:47.003Z,58.07
2019-04-03T00:02:47.053Z,57.97
2019-04-03T00:03:46.984Z,58.38
2019-04-03T00:04:47.002Z,58.28
2019-04-03T00:05:46.992Z,58.69
2019-04-03T00:06:46.986Z,58.28
2019-04-03T00:07:47.102Z,58.35
2019-04-03T00:08:47.032Z,58.79
2019-04-03T00:09:46.966Z,58.56
2019-04-03T00:10:47.222Z,58.56
2019-04-03T00:11:46.981Z,57.64
2019-04-03T00:12:47.135Z,58.04
2019-04-03T00:13:46.972Z,57.64
2019-04-03T00:14:47.041Z,57.74
2019-04-03T00:15:47.116Z,58.66
2019-04-03T00:16:46.978Z,58.45
2019-04-03T00:17:46.968Z,57.94
2019-04-03T00:18:47.963Z,58.45
2019-04-03T00:19:47.704Z,58.45
2019-04-03T00:20:48.669Z,58.56
2019-04-03T00:21:47.008Z,58.25
2019-04-03T00:22:46.856Z,58.43
2019-04-03T00:23:46.746Z,58.35
2019-04-03T00:24:46.833Z,58.53
2019-04-03T00:25:46.722Z,58.56
2019-04-03T00:26:46.709Z,58.53
2019-04-03T00:27:46.943Z,58.22
2019-04-03T00:28:46.701Z,58.35
2019-04-03T00:29:46.697Z,58.22
2019-04-03T00:30:46.711Z,58.22
2019-04-03T00:31:46.649Z,58.45
2019-04-03T00:32:46.644Z,58.66
2019-04-03T00:33:46.689Z,58.15
2019-04-03T00:34:46.618Z,58.12
2019-04-03T00:35:46.716Z,57.84
2019-04-03T00:36:46.601Z,58.12
2019-04-03T00:37:46.593Z,58.86
2019-04-03T00:38:46.640Z,57.94
2019-04-03T00:39:46.566Z,58.56
2019-04-03T00:40:46.599Z,59.07
2019-04-03T00:41:46.548Z,58.45
2019-04-03T00:42:46.529Z,57.64
2019-04-03T00:43:46.532Z,59.07
2019-04-03T00:44:46.545Z,58.86
2019-04-03T00:45:46.496Z,58.86
2019-04-03T00:46:46.547Z,58.45
2019-04-03T00:47:46.485Z,58.45
2019-04-03T00:48:46.459Z,59.38
2019-04-03T00:49:46.455Z,59.30
2019-04-03T00:50:46.533Z,59.17
2019-04-03T00:51:46.427Z,59.92
2019-04-03T00:52:46.520Z,59.61
2019-04-03T00:53:46.411Z,59.61
2019-04-03T00:54:46.480Z,59.41
2019-04-03T00:55:46.392Z,59.81
2019-04-03T00:56:46.374Z,59.92
2019-04-03T00:57:46.366Z,59.61
2019-04-03T00:58:46.407Z,60.42
2019-04-03T00:59:46.342Z,60.33
2019-04-03T01:00:46.354Z,60.35
2019-04-03T01:01:46.330Z,60.25
2019-04-03T01:02:46.359Z,60.33
2019-04-03T01:03:46.299Z,60.02
2019-04-03T01:04:46.283Z,60.97
2019-04-03T01:05:46.277Z,61.18
2019-04-03T01:06:46.268Z,61.25
2019-04-03T01:07:46.264Z,60.94
2019-04-03T01:08:46.299Z,61.45
2019-04-03T01:09:46.239Z,61.45
2019-04-03T01:10:46.221Z,61.27
2019-04-03T01:11:46.207Z,61.38
2019-04-03T01:12:46.196Z,61.18
2019-04-03T01:13:46.712Z,61.35
2019-04-03T01:14:46.172Z,61.48
2019-04-03T01:15:46.178Z,61.58
2019-04-03T01:16:46.186Z,61.48
2019-04-03T01:17:46.147Z,60.94
2019-04-03T01:18:46.352Z,61.27
2019-04-03T01:19:46.130Z,61.48
2019-04-03T01:20:46.107Z,61.18
2019-04-03T01:21:46.099Z,60.97
2019-04-03T01:22:46.088Z,62.19
2019-04-03T01:23:46.132Z,61.99
2019-04-03T01:24:46.155Z,61.58
2019-04-03T01:25:46.048Z,61.79
2019-04-03T01:26:46.110Z,61.48
2019-04-03T01:27:46.048Z,62.81
2019-04-03T01:28:46.108Z,61.99
2019-04-03T01:29:46.016Z,61.69
2019-04-03T01:30:45.991Z,61.58
2019-04-03T01:31:45.986Z,62.10
2019-04-03T01:32:46.812Z,61.69
2019-04-03T01:33:46.799Z,61.79
2019-04-03T01:34:47.708Z,62.10
2019-04-03T01:35:47.456Z,62.10
2019-04-03T01:36:46.579Z,62.30
2019-04-03T01:37:46.012Z,61.79
2019-04-03T01:38:45.923Z,62.10
2019-04-03T01:39:45.899Z,61.99
2019-04-03T01:40:45.887Z,61.99
2019-04-03T01:41:45.879Z,62.30
2019-04-03T01:42:45.932Z,61.69
2019-04-03T01:43:45.907Z,61.79
2019-04-03T01:44:45.841Z,61.71
2019-04-03T01:45:46.019Z,61.79
2019-04-03T01:46:45.818Z,61.51
2019-04-03T01:47:45.810Z,62.33
2019-04-03T01:48:45.872Z,62.43
2019-04-03T01:49:45.797Z,62.63
2019-04-03T01:50:45.903Z,62.63
2019-04-03T01:51:45.762Z,62.95
2019-04-03T01:52:45.751Z,62.54
2019-04-03T01:53:45.752Z,62.74
2019-04-03T01:54:45.840Z,62.63
2019-04-03T01:55:45.818Z,62.74
2019-04-03T01:56:45.852Z,62.63
2019-04-03T01:57:45.696Z,63.07
2019-04-03T01:58:45.684Z,63.49
2019-04-03T01:59:45.884Z,63.39
2019-04-03T02:00:45.709Z,63.39
2019-04-03T02:01:45.706Z,63.07
2019-04-03T02:02:45.667Z,63.07
2019-04-03T02:03:45.784Z,63.07
2019-04-03T02:04:45.613Z,63.28
2019-04-03T02:05:45.827Z,62.87
2019-04-03T02:06:45.642Z,62.87
2019-04-03T02:07:45.594Z,62.87
2019-04-03T02:08:45.599Z,63.18
2019-04-03T02:09:46.554Z,62.87
2019-04-03T02:10:48.219Z,63.07
2019-04-03T02:11:45.633Z,62.98
2019-04-03T02:12:45.573Z,63.18
2019-04-03T02:13:45.570Z,63.18
2019-04-03T02:14:45.503Z,63.18
2019-04-03T02:15:52.934Z,63.39
2019-04-03T02:16:45.492Z,63.59
2019-04-03T02:17:45.518Z,63.69
2019-04-03T02:18:45.514Z,63.49
2019-04-03T02:19:45.451Z,63.62
2019-04-03T02:20:45.491Z,63.90
2019-04-03T02:21:45.422Z,63.59
2019-04-03T02:22:45.519Z,64.00
2019-04-03T02:23:45.410Z,63.82
2019-04-03T02:24:45.493Z,63.59
2019-04-03T02:25:45.576Z,63.49
2019-04-03T02:26:45.373Z,63.59
2019-04-03T02:27:45.363Z,64.00
2019-04-03T02:28:45.358Z,63.39
2019-04-03T02:29:45.356Z,63.59
2019-04-03T02:30:46.893Z,64.03
2019-04-03T02:31:45.374Z,63.82
2019-04-03T02:32:45.312Z,63.90
2019-04-03T02:33:45.296Z,63.90
2019-04-03T02:34:45.318Z,64.03
2019-04-03T02:35:45.439Z,64.20
2019-04-03T02:36:45.684Z,63.72
2019-04-03T02:37:48.733Z,64.00
2019-04-03T02:38:45.516Z,64.00
2019-04-03T02:39:45.259Z,63.93
2019-04-03T02:40:45.236Z,64.13
2019-04-03T02:41:45.238Z,64.23
2019-04-03T02:42:45.262Z,64.95
2019-04-03T02:43:46.537Z,64.34
2019-04-03T02:44:45.178Z,64.23
2019-04-03T02:45:45.182Z,64.44
2019-04-03T02:46:45.641Z,64.44
2019-04-03T02:47:45.446Z,64.23
2019-04-03T02:48:45.195Z,64.13
2019-04-03T02:49:45.169Z,64.03
2019-04-03T02:50:47.570Z,64.23
2019-04-03T02:51:45.148Z,64.57
2019-04-03T02:52:45.091Z,64.78
2019-04-03T02:53:45.420Z,65.19
2019-04-03T02:54:45.066Z,64.78
2019-04-03T02:55:45.317Z,65.19
2019-04-03T02:56:46.035Z,65.39
2019-04-03T02:57:48.668Z,65.80
2019-04-03T02:58:45.045Z,66.42
2019-04-03T02:59:45.235Z,65.80
2019-04-03T03:00:45.010Z,65.70
2019-04-03T03:01:45.055Z,65.19
2019-04-03T03:02:45.819Z,64.88
2019-04-03T03:03:48.494Z,65.70
2019-04-03T03:04:44.955Z,65.39
2019-04-03T03:05:45.085Z,64.67
2019-04-03T03:06:44.944Z,65.60
2019-04-03T03:07:45.215Z,66.01
2019-04-03T03:08:45.397Z,65.70
2019-04-03T03:09:46.912Z,66.42
2019-04-03T03:10:44.901Z,65.80
2019-04-03T03:11:45.220Z,66.11
2019-04-03T03:12:44.867Z,66.31
2019-04-03T03:13:44.928Z,66.11
2019-04-03T03:14:44.857Z,65.91
2019-04-03T03:15:45.465Z,65.70
2019-04-03T03:16:44.931Z,66.31
2019-04-03T03:17:45.252Z,66.22
2019-04-03T03:18:44.818Z,66.11
2019-04-03T03:19:44.889Z,66.52
2019-04-03T03:20:45.072Z,66.42
2019-04-03T03:21:45.594Z,66.35
2019-04-03T03:22:44.760Z,66.22
2019-04-03T03:23:44.745Z,66.42
2019-04-03T03:24:45.066Z,66.42
2019-04-03T03:25:44.759Z,66.63
2019-04-03T03:26:44.773Z,66.83
2019-04-03T03:27:44.705Z,66.52
2019-04-03T03:28:46.917Z,66.31
2019-04-03T03:29:44.678Z,66.35
2019-04-03T03:30:54.922Z,66.52
2019-04-03T03:32:05.064Z,66.63
2019-04-03T03:32:46.072Z,66.66
2019-04-03T03:33:45.260Z,66.55
2019-04-03T03:34:52.878Z,66.35
2019-04-03T03:35:48.532Z,66.66
2019-04-03T03:36:44.832Z,66.66
2019-04-03T03:37:44.606Z,66.86
2019-04-03T03:38:44.794Z,66.86
2019-04-03T03:39:44.713Z,66.45
2019-04-03T03:40:47.302Z,66.66
2019-04-03T03:41:45.015Z,66.86
2019-04-03T03:42:44.847Z,66.86
2019-04-03T03:43:44.523Z,66.66
2019-04-03T03:44:46.138Z,66.96
2019-04-03T03:45:44.747Z,66.66
2019-04-03T03:46:44.503Z,67.17
2019-04-03T03:47:44.569Z,67.27
2019-04-03T03:48:45.482Z,67.07
2019-04-03T03:49:44.662Z,67.27
2019-04-03T03:50:44.552Z,67.38
2019-04-03T03:51:44.692Z,67.27
2019-04-03T03:52:44.430Z,67.48
2019-04-03T03:53:45.975Z,67.48
2019-04-03T03:54:44.406Z,67.27
2019-04-03T03:55:44.389Z,67.27
2019-04-03T03:56:44.762Z,67.38
2019-04-03T03:57:44.385Z,67.27
2019-04-03T03:58:45.700Z,67.58
2019-04-03T03:59:44.346Z,67.38
2019-04-03T04:00:44.339Z,67.79
2019-04-03T04:01:44.318Z,67.58
2019-04-03T04:02:45.190Z,67.30
2019-04-03T04:03:44.589Z,67.17
2019-04-03T04:04:46.661Z,67.30
2019-04-03T04:05:44.279Z,67.30
2019-04-03T04:06:44.308Z,67.30
2019-04-03T04:07:44.445Z,67.30
2019-04-03T04:08:45.370Z,67.41
2019-04-03T04:09:44.293Z,67.20
2019-04-03T04:10:44.511Z,67.51
2019-04-03T04:11:44.280Z,67.10
2019-04-03T04:12:44.206Z,68.13
2019-04-03T04:13:47.645Z,67.00
2019-04-03T04:14:44.241Z,67.00
2019-04-03T04:15:44.193Z,67.30
2019-04-03T04:16:46.956Z,67.30
2019-04-03T04:17:44.157Z,67.30
2019-04-03T04:18:44.245Z,67.92
2019-04-03T04:19:44.224Z,67.61
2019-04-03T04:20:44.138Z,67.92
2019-04-03T04:21:45.150Z,68.02
2019-04-03T04:22:44.094Z,68.23
2019-04-03T04:23:44.400Z,67.92
2019-04-03T04:24:44.075Z,68.02
2019-04-03T04:25:44.644Z,68.43
2019-04-03T04:26:44.275Z,68.43
2019-04-03T04:27:44.037Z,68.43
2019-04-03T04:28:44.138Z,68.57
2019-04-03T04:29:44.013Z,68.23
2019-04-03T04:30:44.001Z,68.43
2019-04-03T04:31:44.478Z,68.88
2019-04-03T04:32:45.689Z,68.46
2019-04-03T04:33:44.023Z,68.43
2019-04-03T04:34:44.082Z,67.51
2019-04-03T04:35:44.143Z,67.51
2019-04-03T04:36:43.938Z,68.02
2019-04-03T04:37:43.931Z,67.00
2019-04-03T04:38:44.103Z,67.30
2019-04-03T04:39:43.908Z,67.17
2019-04-03T04:40:43.896Z,67.20
2019-04-03T04:41:43.883Z,67.30
2019-04-03T04:42:43.872Z,67.51
2019-04-03T04:43:43.871Z,67.20
2019-04-03T04:44:43.897Z,67.30
2019-04-03T04:45:44.017Z,67.30
2019-04-03T04:46:44.691Z,67.41
2019-04-03T04:47:45.852Z,67.10
2019-04-03T04:48:43.818Z,67.10
2019-04-03T04:49:43.836Z,67.61
2019-04-03T04:50:44.059Z,68.13
2019-04-03T04:51:44.081Z,67.00
2019-04-03T04:52:43.762Z,67.00
2019-04-03T04:53:43.811Z,67.00
2019-04-03T04:54:44.038Z,68.13
2019-04-03T04:55:43.731Z,67.38
2019-04-03T04:56:43.787Z,67.71
2019-04-03T04:57:43.704Z,67.71
2019-04-03T04:58:43.976Z,68.19
2019-04-03T04:59:45.228Z,67.99
2019-04-03T05:00:45.054Z,67.07
2019-04-03T05:01:43.724Z,67.41
2019-04-03T05:02:43.656Z,67.27
2019-04-03T05:03:43.646Z,67.27
2019-04-03T05:04:43.627Z,67.10
2019-04-03T05:05:43.644Z,67.07
2019-04-03T05:06:43.613Z,67.27
2019-04-03T05:07:43.683Z,67.38
2019-04-03T05:08:43.581Z,67.48
2019-04-03T05:09:43.579Z,67.58
2019-04-03T05:10:43.566Z,67.48
2019-04-03T05:11:43.686Z,67.27
2019-04-03T05:12:45.542Z,67.17
2019-04-03T05:13:46.295Z,67.27
2019-04-03T05:14:43.568Z,67.38
2019-04-03T05:15:43.509Z,67.38
2019-04-03T05:16:43.490Z,67.27
2019-04-03T05:17:43.489Z,66.45
2019-04-03T05:18:43.526Z,66.96
2019-04-03T05:19:43.932Z,67.07
2019-04-03T05:20:43.560Z,67.07
2019-04-03T05:21:43.549Z,66.76
2019-04-03T05:22:43.594Z,66.76
2019-04-03T05:23:43.421Z,66.52
2019-04-03T05:24:43.480Z,66.35
2019-04-03T05:25:43.574Z,66.31
2019-04-03T05:26:43.385Z,66.42
2019-04-03T05:27:43.382Z,66.11
2019-04-03T05:28:54.319Z,66.42
2019-04-03T05:29:44.347Z,66.31
2019-04-03T05:30:43.345Z,65.80
2019-04-03T05:31:43.387Z,65.50
2019-04-03T05:32:43.328Z,65.29
2019-04-03T05:33:43.368Z,65.80
2019-04-03T05:34:44.080Z,66.01
2019-04-03T05:35:45.317Z,65.50
2019-04-03T05:36:43.279Z,65.91
2019-04-03T05:37:43.617Z,65.77
2019-04-03T05:38:43.273Z,64.85
2019-04-03T05:39:43.244Z,65.26
2019-04-03T05:40:43.489Z,65.06
2019-04-03T05:41:43.417Z,64.85
2019-04-03T05:42:43.289Z,65.36
2019-04-03T05:43:43.511Z,64.64
2019-04-03T05:44:43.200Z,64.51
2019-04-03T05:45:43.176Z,64.75
2019-04-03T05:46:43.185Z,64.75
2019-04-03T05:47:43.148Z,64.64
2019-04-03T05:48:43.148Z,64.54
2019-04-03T05:49:46.320Z,65.26
2019-04-03T05:50:43.141Z,65.26
2019-04-03T05:51:43.116Z,64.85
2019-04-03T05:52:43.099Z,64.82
2019-04-03T05:53:43.168Z,64.82
2019-04-03T05:54:44.475Z,64.20
2019-04-03T05:55:43.131Z,63.69
2019-04-03T05:56:43.418Z,63.90
2019-04-03T05:57:44.909Z,64.20
2019-04-03T05:58:54.593Z,64.00
2019-04-03T05:59:44.612Z,63.69
2019-04-03T06:00:43.076Z,63.46
2019-04-03T06:01:46.062Z,63.22
2019-04-03T06:02:42.986Z,62.71
2019-04-03T06:03:45.571Z,62.40
2019-04-03T06:04:42.998Z,62.71
2019-04-03T06:05:43.944Z,62.78
2019-04-03T06:06:45.910Z,61.66
2019-04-03T06:07:43.095Z,62.19
2019-04-03T06:08:43.098Z,61.55
2019-04-03T06:09:43.153Z,61.69
2019-04-03T06:10:43.034Z,61.55
2019-04-03T06:11:42.979Z,62.07
2019-04-03T06:12:45.348Z,61.55
2019-04-03T06:13:42.902Z,61.43
2019-04-03T06:14:42.873Z,61.40
2019-04-03T06:15:42.864Z,60.17
2019-04-03T06:16:42.861Z,60.10
2019-04-03T06:17:42.932Z,60.19
2019-04-03T06:18:42.840Z,59.96
2019-04-03T06:19:43.049Z,59.76
2019-04-03T06:20:43.935Z,59.76
2019-04-03T06:21:45.619Z,60.03
2019-04-03T06:22:42.778Z,59.22
2019-04-03T06:23:42.976Z,58.78
2019-04-03T06:24:43.122Z,57.84
2019-04-03T06:25:42.734Z,56.99
2019-04-03T06:26:44.580Z,56.79
2019-04-03T06:27:45.469Z,55.71
2019-04-03T06:28:44.904Z,55.69
2019-04-03T06:29:42.751Z,54.33
2019-04-03T06:30:42.747Z,53.52
2019-04-03T06:31:42.682Z,54.03
2019-04-03T06:32:42.732Z,53.52
2019-04-03T06:33:42.642Z,53.67
2019-04-03T06:34:43.731Z,52.63
2019-04-03T06:35:44.544Z,51.48
2019-04-03T06:36:42.632Z,49.91
2019-04-03T06:37:42.732Z,48.55
2019-04-03T06:38:42.585Z,48.44
2019-04-03T06:39:42.576Z,49.08
2019-04-03T06:40:42.820Z,49.00
2019-04-03T06:41:42.827Z,49.33
2019-04-03T06:42:44.956Z,50.90
2019-04-03T06:43:42.608Z,52.88
2019-04-03T06:44:42.712Z,53.24
2019-04-03T06:45:43.893Z,54.33
2019-04-03T06:46:42.524Z,52.53
2019-04-03T06:47:42.493Z,50.85
2019-04-03T06:48:42.731Z,49.28
2019-04-03T06:49:42.472Z,48.57
2019-04-03T06:50:42.583Z,48.95
2019-04-03T06:51:42.449Z,47.83
2019-04-03T06:52:42.438Z,48.19
2019-04-03T06:53:42.467Z,47.75
2019-04-03T06:54:44.522Z,46.81
2019-04-03T06:55:42.491Z,45.25
2019-04-03T06:56:42.394Z,43.73
2019-04-03T06:57:42.446Z,44.72
2019-04-03T06:58:44.416Z,43.77
2019-04-03T06:59:42.359Z,42.43
2019-04-03T07:00:42.584Z,43.10
2019-04-03T07:01:42.341Z,44.21
2019-04-03T07:02:42.418Z,43.06
2019-04-03T07:03:42.362Z,42.01
2019-04-03T07:04:42.340Z,40.64
2019-04-03T07:05:42.327Z,39.61
2019-04-03T07:06:44.310Z,38.50
2019-04-03T07:07:42.313Z,38.59
2019-04-03T07:08:42.320Z,39.23
2019-04-03T07:09:42.375Z,40.90
2019-04-03T07:10:54.238Z,41.32
2019-04-03T07:11:44.029Z,42.88
2019-04-03T07:12:42.360Z,42.90
2019-04-03T07:13:42.199Z,42.68
2019-04-03T07:14:42.282Z,42.64
2019-04-03T07:15:42.190Z,41.27
2019-04-03T07:16:42.219Z,40.01
2019-04-03T07:17:49.001Z,37.95
2019-04-03T07:18:42.300Z,37.85
2019-04-03T07:19:42.226Z,37.23
2019-04-03T07:20:42.122Z,36.70
2019-04-03T07:21:42.181Z,35.86
2019-04-03T07:22:42.121Z,35.23
2019-04-03T07:23:42.337Z,34.71
2019-04-03T07:24:42.101Z,33.79
2019-04-03T07:25:42.124Z,33.91
2019-04-03T07:26:42.054Z,34.33
2019-04-03T07:27:42.457Z,33.81
2019-04-03T07:28:42.378Z,33.37
2019-04-03T07:29:42.023Z,32.03
2019-04-03T07:30:42.399Z,31.82
2019-04-03T07:31:42.062Z,31.74
2019-04-03T07:32:42.246Z,32.34
2019-04-03T07:33:41.974Z,32.47
2019-04-03T07:34:41.986Z,32.44
2019-04-03T07:35:41.966Z,31.29
2019-04-03T07:36:44.698Z,31.58
2019-04-03T07:37:42.035Z,32.15
2019-04-03T07:38:41.926Z,32.35
2019-04-03T07:39:41.911Z,32.24
2019-04-03T07:40:42.075Z,32.34
2019-04-03T07:41:42.168Z,32.03
2019-04-03T07:42:42.189Z,31.20
2019-04-03T07:43:41.863Z,30.16
2019-04-03T07:44:41.849Z,30.74
2019-04-03T07:45:43.874Z,29.51
2019-04-03T07:46:41.829Z,28.20
2019-04-03T07:47:41.824Z,29.28
2019-04-03T07:48:42.712Z,28.38
2019-04-03T07:49:41.796Z,27.47
2019-04-03T07:50:42.299Z,26.27
2019-04-03T07:51:43.292Z,27.79
2019-04-03T07:52:41.800Z,28.42
2019-04-03T07:53:41.891Z,28.30
2019-04-03T07:54:41.752Z,27.26
2019-04-03T07:55:43.715Z,26.23
2019-04-03T07:56:42.007Z,26.01
2019-04-03T07:57:41.709Z,24.78
2019-04-03T07:58:41.714Z,23.26
2019-04-03T07:59:41.802Z,23.14
2019-04-03T08:00:42.084Z,23.15
2019-04-03T08:01:41.876Z,22.84
2019-04-03T08:02:47.446Z,22.95
2019-04-03T08:03:43.039Z,23.48
2019-04-03T08:04:41.641Z,25.45
2019-04-03T08:05:41.684Z,25.74
2019-04-03T08:06:41.617Z,25.10
2019-04-03T08:07:41.691Z,24.47
2019-04-03T08:08:41.735Z,23.33
2019-04-03T08:09:41.861Z,23.08
2019-04-03T08:10:41.569Z,23.79
2019-04-03T08:11:41.596Z,24.88
2019-04-03T08:12:41.797Z,24.72
2019-04-03T08:13:41.543Z,26.03
2019-04-03T08:14:42.006Z,25.93
2019-04-03T08:15:43.893Z,25.09
2019-04-03T08:16:42.777Z,24.91
2019-04-03T08:17:41.538Z,25.09
2019-04-03T08:18:41.474Z,24.77
2019-04-03T08:19:41.536Z,23.15
2019-04-03T08:20:41.562Z,22.83
2019-04-03T08:21:41.518Z,21.81
2019-04-03T08:22:41.755Z,21.53
2019-04-03T08:23:41.623Z,22.19
2019-04-03T08:24:41.409Z,21.29
2019-04-03T08:25:42.857Z,21.08
2019-04-03T08:26:42.483Z,20.17
2019-04-03T08:27:41.383Z,20.06
2019-04-03T08:28:41.450Z,19.76
2019-04-03T08:29:41.772Z,19.46
2019-04-03T08:30:41.359Z,19.85
2019-04-03T08:31:44.174Z,19.06
2019-04-03T08:32:42.339Z,19.06
2019-04-03T08:33:41.317Z,19.27
2019-04-03T08:34:41.355Z,19.77
2019-04-03T08:35:41.295Z,20.20
2019-04-03T08:36:41.617Z,21.32
2019-04-03T08:37:42.206Z,21.34
2019-04-03T08:38:43.987Z,22.45
2019-04-03T08:39:41.269Z,22.25
2019-04-03T08:40:41.427Z,22.75
2019-04-03T08:41:41.234Z,22.45
2019-04-03T08:42:41.212Z,22.23
2019-04-03T08:43:41.199Z,22.41
2019-04-03T08:44:41.254Z,21.59
2019-04-03T08:45:41.191Z,20.29
2019-04-03T08:46:43.882Z,20.70
2019-04-03T08:47:44.534Z,22.06
2019-04-03T08:48:41.142Z,23.59
2019-04-03T08:49:41.143Z,23.67
2019-04-03T08:50:41.277Z,23.04
2019-04-03T08:51:41.114Z,22.11
2019-04-03T08:52:41.109Z,20.88
2019-04-03T08:53:41.222Z,20.25
2019-04-03T08:54:42.198Z,19.86
2019-04-03T08:55:41.069Z,19.84
2019-04-03T08:56:41.117Z,18.48
2019-04-03T08:57:41.099Z,19.87
2019-04-03T08:58:41.089Z,20.28
2019-04-03T08:59:41.027Z,20.60
2019-04-03T09:00:41.034Z,21.01
2019-04-03T09:01:41.010Z,21.05
2019-04-03T09:02:43.762Z,22.34
2019-04-03T09:03:41.015Z,22.47
2019-04-03T09:04:40.965Z,23.68
2019-04-03T09:05:41.002Z,24.90
2019-04-03T09:06:40.945Z,25.00
2019-04-03T09:07:40.942Z,24.18
2019-04-03T09:08:41.045Z,23.74
2019-04-03T09:09:41.049Z,22.84
2019-04-03T09:10:41.087Z,21.23
2019-04-03T09:11:40.902Z,21.35
2019-04-03T09:12:40.901Z,21.15
2019-04-03T09:13:40.899Z,21.61
2019-04-03T09:14:40.978Z,20.20
2019-04-03T09:15:40.924Z,20.68
2019-04-03T09:16:41.283Z,19.69
2019-04-03T09:17:40.855Z,19.67
2019-04-03T09:18:40.938Z,18.66
2019-04-03T09:19:41.751Z,18.76
2019-04-03T09:20:41.091Z,19.22
2019-04-03T09:21:41.013Z,18.02
2019-04-03T09:22:40.986Z,17.21
2019-04-03T09:23:41.069Z,16.30
2019-04-03T09:24:40.786Z,16.00
2019-04-03T09:25:40.839Z,16.39
2019-04-03T09:26:40.905Z,17.00
2019-04-03T09:27:40.979Z,17.14
2019-04-03T09:28:41.901Z,18.79
2019-04-03T09:29:40.789Z,20.38
2019-04-03T09:30:40.699Z,19.52
2019-04-03T09:31:40.924Z,21.95
2019-04-03T09:32:41.014Z,22.07
2019-04-03T09:33:40.660Z,22.55
2019-04-03T09:34:40.653Z,22.30
2019-04-03T09:35:42.792Z,20.40
2019-04-03T09:36:40.733Z,19.62
2019-04-03T09:37:40.697Z,20.62
2019-04-03T09:38:41.499Z,19.82
2019-04-03T09:39:40.659Z,20.46
2019-04-03T09:40:40.586Z,22.29
2019-04-03T09:41:40.928Z,22.60
2019-04-03T09:42:40.654Z,22.27
2019-04-03T09:43:40.597Z,21.66
2019-04-03T09:44:40.791Z,21.47
2019-04-03T09:45:40.524Z,21.38
2019-04-03T09:46:40.520Z,22.48
2019-04-03T09:47:40.502Z,22.59
2019-04-03T09:48:40.624Z,22.29
2019-04-03T09:49:43.412Z,21.10
2019-04-03T09:50:40.476Z,22.30
2019-04-03T09:51:40.483Z,22.39
2019-04-03T09:52:48.216Z,22.29
2019-04-03T09:53:41.515Z,20.97
2019-04-03T09:54:40.636Z,20.68
2019-04-03T09:55:40.418Z,20.62
2019-04-03T09:56:54.855Z,19.07
2019-04-03T09:57:41.404Z,17.69
2019-04-03T09:58:40.406Z,19.74
2019-04-03T09:59:40.601Z,20.44
2019-04-03T10:00:42.308Z,19.21
2019-04-03T10:01:40.358Z,19.29
2019-04-03T10:02:40.352Z,18.91
2019-04-03T10:03:40.397Z,19.32
2019-04-03T10:04:40.329Z,18.74
2019-04-03T10:05:40.671Z,19.93
2019-04-03T10:06:40.496Z,19.21
2019-04-03T10:07:40.606Z,18.56
2019-04-03T10:08:41.065Z,18.16
2019-04-03T10:09:43.159Z,17.55
2019-04-03T10:10:40.291Z,17.33
2019-04-03T10:11:40.469Z,16.24
2019-04-03T10:12:42.444Z,16.42
2019-04-03T10:13:40.227Z,15.05
2019-04-03T10:14:40.331Z,16.32
2019-04-03T10:15:40.360Z,17.24
2019-04-03T10:16:40.257Z,16.25
2019-04-03T10:17:40.196Z,15.76
2019-04-03T10:18:41.799Z,16.97
2019-04-03T10:19:40.290Z,17.07
2019-04-03T10:20:40.162Z,17.48
2019-04-03T10:21:41.023Z,19.21
2019-04-03T10:22:40.143Z,19.44
2019-04-03T10:23:40.248Z,19.74
2019-04-03T10:24:40.147Z,19.85
2019-04-03T10:25:40.384Z,19.04
2019-04-03T10:26:40.926Z,19.35
2019-04-03T10:27:42.677Z,20.27
2019-04-03T10:28:42.168Z,21.28
2019-04-03T10:29:40.187Z,20.26
2019-04-03T10:30:40.060Z,20.16
2019-04-03T10:31:40.035Z,20.23
2019-04-03T10:32:40.271Z,19.40
2019-04-03T10:33:40.028Z,18.46
2019-04-03T10:34:40.020Z,17.04
2019-04-03T10:35:40.128Z,16.05
2019-04-03T10:36:42.046Z,16.35
2019-04-03T10:37:39.997Z,15.84
2019-04-03T10:38:41.886Z,15.14
2019-04-03T10:39:43.725Z,17.16
2019-04-03T10:40:41.870Z,18.39
2019-04-03T10:41:40.082Z,18.90
2019-04-03T10:42:40.225Z,18.30
2019-04-03T10:43:39.920Z,18.90
2019-04-03T10:44:40.013Z,18.90
2019-04-03T10:45:40.235Z,18.65
2019-04-03T10:46:39.960Z,17.33
2019-04-03T10:47:43.370Z,15.55
2019-04-03T10:48:40.140Z,15.63
2019-04-03T10:49:40.345Z,15.14
2019-04-03T10:50:39.837Z,15.75
2019-04-03T10:51:41.885Z,16.22
2019-04-03T10:52:40.165Z,15.44
2019-04-03T10:53:39.944Z,15.53
2019-04-03T10:54:39.861Z,15.75
2019-04-03T10:55:40.099Z,17.69
2019-04-03T10:56:39.838Z,19.11
2019-04-03T10:57:39.803Z,19.60
2019-04-03T10:58:42.265Z,19.52
2019-04-03T10:59:40.233Z,19.65
2019-04-03T11:00:39.846Z,20.78
2019-04-03T11:01:40.070Z,21.78
2019-04-03T11:02:39.823Z,21.50
2019-04-03T11:03:39.719Z,21.59
2019-04-03T11:04:39.782Z,21.58
2019-04-03T11:05:39.686Z,20.45
2019-04-03T11:06:40.063Z,20.24
2019-04-03T11:07:39.672Z,20.42
2019-04-03T11:08:39.670Z,20.09
2019-04-03T11:09:39.649Z,18.79
2019-04-03T11:10:39.889Z,18.55
2019-04-03T11:11:42.544Z,18.06
2019-04-03T11:12:39.636Z,18.81
2019-04-03T11:13:39.602Z,20.03
2019-04-03T11:14:40.019Z,21.39
2019-04-03T11:15:39.601Z,22.81
2019-04-03T11:16:39.674Z,22.00
2019-04-03T11:17:39.567Z,21.18
2019-04-03T11:19:06.641Z,21.47
2019-04-03T11:19:39.757Z,21.59
2019-04-03T11:20:40.978Z,22.11
2019-04-03T11:21:39.819Z,23.25
2019-04-03T11:22:41.815Z,24.46
2019-04-03T11:23:44.449Z,23.94
2019-04-03T11:24:42.533Z,23.33
2019-04-03T11:25:41.951Z,23.41
2019-04-03T11:26:39.490Z,23.10
2019-04-03T11:27:43.675Z,22.45
2019-04-03T11:28:40.468Z,20.67
2019-04-03T11:29:41.916Z,20.65
2019-04-03T11:30:39.842Z,20.33
2019-04-03T11:31:41.834Z,19.43
2019-04-03T11:32:41.263Z,19.29
2019-04-03T11:33:39.457Z,18.56
2019-04-03T11:34:39.376Z,18.44
2019-04-03T11:35:39.373Z,17.73
2019-04-03T11:36:39.373Z,17.73
2019-04-03T11:37:39.396Z,17.28
2019-04-03T11:38:39.403Z,19.38
2019-04-03T11:39:39.519Z,17.93
2019-04-03T11:40:39.516Z,19.50
2019-04-03T11:41:39.537Z,18.88
2019-04-03T11:42:39.377Z,17.76
2019-04-03T11:43:39.721Z,17.26
2019-04-03T11:44:39.334Z,17.84
2019-04-03T11:45:39.602Z,17.72
2019-04-03T11:46:39.812Z,17.22
2019-04-03T11:47:39.316Z,16.96
2019-04-03T11:48:42.036Z,18.57
2019-04-03T11:49:39.232Z,18.48
2019-04-03T11:50:40.144Z,18.27
2019-04-03T11:51:39.503Z,17.77
2019-04-03T11:52:39.255Z,19.38
2019-04-03T11:53:39.222Z,18.01
2019-04-03T11:54:39.999Z,19.18
2019-04-03T11:55:39.945Z,18.85
2019-04-03T11:56:39.170Z,18.84
2019-04-03T11:57:39.223Z,19.34
2019-04-03T11:58:39.131Z,19.34
2019-04-03T11:59:39.192Z,18.13
2019-04-03T12:00:39.151Z,18.60
2019-04-03T12:01:39.120Z,17.43
2019-04-03T12:02:40.037Z,18.00
2019-04-03T12:03:39.248Z,17.80
2019-04-03T12:04:39.159Z,17.00
2019-04-03T12:05:39.347Z,17.10
2019-04-03T12:06:39.688Z,16.78
2019-04-03T12:07:39.041Z,15.82
2019-04-03T12:08:39.217Z,17.80
2019-04-03T12:09:39.487Z,18.72
2019-04-03T12:10:39.015Z,18.73
2019-04-03T12:11:39.521Z,18.71
2019-04-03T12:12:41.646Z,18.50
2019-04-03T12:13:39.049Z,18.71
2019-04-03T12:14:39.114Z,19.41
2019-04-03T12:15:38.995Z,18.03
2019-04-03T12:16:39.244Z,18.80
2019-04-03T12:17:39.003Z,18.10
2019-04-03T12:18:39.326Z,17.71
2019-04-03T12:19:39.016Z,17.62
2019-04-03T12:20:43.778Z,17.92
2019-04-03T12:21:40.147Z,17.91
2019-04-03T12:22:39.006Z,18.91
2019-04-03T12:23:39.555Z,17.44
2019-04-03T12:24:38.884Z,17.74
2019-04-03T12:25:40.607Z,17.86
2019-04-03T12:26:38.873Z,19.26
2019-04-03T12:27:38.870Z,19.26
2019-04-03T12:28:38.943Z,18.77
2019-04-03T12:29:38.857Z,19.65
2019-04-03T12:30:38.841Z,19.16
2019-04-03T12:31:39.050Z,18.86
2019-04-03T12:32:43.695Z,18.44
2019-04-03T12:33:51.671Z,19.86
2019-04-03T12:34:39.779Z,20.19
2019-04-03T12:35:40.864Z,21.31
2019-04-03T12:36:38.834Z,21.70
2019-04-03T12:37:38.753Z,21.61
2019-04-03T12:38:38.736Z,21.14
2019-04-03T12:39:38.726Z,22.64
2019-04-03T12:40:38.967Z,23.37
2019-04-03T12:41:38.713Z,22.86
2019-04-03T12:42:38.921Z,22.96
2019-04-03T12:43:38.693Z,23.47
2019-04-03T12:44:38.949Z,23.68
2019-04-03T12:45:39.006Z,24.38
2019-04-03T12:46:41.011Z,24.71
2019-04-03T12:47:38.658Z,26.13
2019-04-03T12:48:38.983Z,25.84
2019-04-03T12:49:39.051Z,26.23
2019-04-03T12:50:38.981Z,26.33
2019-04-03T12:51:38.989Z,25.62
2019-04-03T12:52:38.927Z,25.73